1996 HERB (1996203N12152)


On this page: IBTrACS data - Map and Plots - Positions - Intensities - Original source data

Summary

Start Jul 21
End Aug 4
Basin WP
LMI 140 kt
Sources jtwc_wp
tokyo
cma
hko
In WMO? Yes
Previous storm 1996 FRANKIE (WP)
Previous in basin 1996 FRANKIE (WP)
Concurrent storms 1996 EVE (WP)
1996 GLORIA (WP)
1996 FRANKIE (WP)
1996 HERB (WP)
1996 CESAR (NA)
1996 JOY (WP)
1996 MISSING (NI)
1996 IAN (WP)
1996 KIRK (WP)
1996 DOUGLAS (EP)
1996 LISA (WP)
Next in basin 1996 JOY (WP)
Next storm 1996 CESAR (NA)

top of page IBTrACS Data: File Access

top of page HURSAT Data: File Access

Image of storm

top of page Plots:

Map of storm track will not appear if FTP is down
Time series of cyclone Maximum Sustained Wind will not appear if FTP is down
Time series of cyclone Minimum Central Pressure will not appear if FTP is down

top of page Track Data:Position

jtwc_wp tokyo cma hko
Date Lat Lon Lat Lon Lat Lon Lat Lon
1996-07-21 06:00:00 12.3 151.6
1996-07-21 12:00:00 12.5 151.9
1996-07-21 18:00:00 12.9 152.2
1996-07-22 00:00:00 13.4 152.4
1996-07-22 06:00:00 14.1 152.6
1996-07-22 12:00:00 14.9 152.7
1996-07-22 18:00:00 15.5 152.7
1996-07-23 00:00:00 16.1 152.5 15.5 154.0 15.5 154.0
1996-07-23 06:00:00 16.8 152.0 16.5 153.5 16.5 153.5 18.2 153.6
1996-07-23 12:00:00 17.4 151.5 17.2 152.8 17.2 152.8 18.7 152.5
1996-07-23 18:00:00 18.0 150.9 18.2 152.1 18.2 152.1 19.2 151.4
1996-07-24 00:00:00 18.5 150.3 19.0 150.9 19.0 150.8 19.6 150.3
1996-07-24 06:00:00 19.0 149.5 19.7 149.6 19.7 149.5 19.8 149.2
1996-07-24 12:00:00 19.5 148.9 19.9 148.5 20.0 148.4 19.9 148.1
1996-07-24 18:00:00 20.0 147.7 20.2 147.5 20.2 147.5 19.9 147.0
1996-07-25 00:00:00 20.2 146.4 20.4 146.3 20.4 146.3 20.1 145.9
1996-07-25 06:00:00 20.2 145.0 20.4 144.9 20.4 144.9 20.3 144.7
1996-07-25 12:00:00 20.2 143.6 20.5 143.8 20.5 143.6 20.5 143.5
1996-07-25 18:00:00 20.5 142.1 20.6 142.5 20.6 142.4 20.7 142.2
1996-07-26 00:00:00 20.6 140.6 20.9 141.0 20.9 140.8 20.8 140.8
1996-07-26 06:00:00 20.6 139.0 20.8 139.3 20.9 139.2 20.6 139.2
1996-07-26 12:00:00 20.4 137.9 20.5 137.7 20.5 137.7 20.4 137.7
1996-07-26 18:00:00 20.0 136.7 20.1 136.9 20.1 136.8 20.1 136.7
1996-07-27 00:00:00 19.7 135.6 19.7 135.7 19.7 135.6 19.7 135.7
1996-07-27 06:00:00 19.3 134.7 19.5 134.7 19.4 134.6 19.3 134.6
jtwc_wp tokyo cma hko
1996-07-27 12:00:00 19.0 133.9 18.9 134.1 19.0 134.0 19.1 134.0
1996-07-27 18:00:00 18.8 133.2 18.8 133.1 18.8 133.1 18.8 133.0
1996-07-28 00:00:00 18.6 132.5 18.6 132.4 18.6 132.4 18.5 132.5
1996-07-28 06:00:00 18.4 131.8 18.5 131.8 18.5 131.7 18.5 131.8
1996-07-28 12:00:00 18.3 131.1 18.4 131.0 18.4 131.0 18.4 131.1
1996-07-28 18:00:00 18.3 130.5 18.3 130.4 18.3 130.4 18.3 130.5
1996-07-29 00:00:00 18.7 129.9 18.6 130.0 18.6 130.0 18.5 130.0
1996-07-29 06:00:00 19.2 129.3 19.3 129.4 19.3 129.4 19.3 129.3
1996-07-29 12:00:00 19.8 128.7 19.8 128.8 19.8 128.8 19.9 128.7
1996-07-29 18:00:00 20.5 128.2 20.2 128.2 20.2 128.2 20.3 128.3
1996-07-30 00:00:00 21.3 127.7 21.0 127.9 21.0 127.8 21.0 127.9
1996-07-30 06:00:00 22.0 127.1 22.1 127.2 22.0 127.1 22.1 127.1
1996-07-30 12:00:00 22.6 126.6 22.4 126.5 22.5 126.6 22.4 126.4
1996-07-30 18:00:00 23.1 126.1 23.2 126.0 23.2 126.0 23.3 126.0
1996-07-31 00:00:00 23.9 124.8 24.0 124.7 24.0 124.7 24.0 124.6
1996-07-31 06:00:00 24.2 123.8 24.1 123.8 24.3 123.7 24.1 123.8
1996-07-31 12:00:00 24.8 122.7 24.8 122.5 24.8 122.5 24.9 122.5
1996-07-31 18:00:00 25.0 121.4 24.8 121.2 24.9 121.0 24.7 121.0
1996-08-01 00:00:00 25.4 120.0 25.5 120.0 25.4 120.0 25.4 120.1
1996-08-01 06:00:00 26.0 118.6 26.0 118.5 25.7 118.7 25.9 118.6
1996-08-01 12:00:00 26.4 117.3 26.3 117.1 26.1 117.2 26.1 117.2
1996-08-01 18:00:00 26.9 116.3 26.8 116.5 26.2 116.1 26.9 116.5
1996-08-02 00:00:00 27.5 115.4 27.4 115.4 27.0 115.3 27.7 115.8
1996-08-02 06:00:00 28.1 114.5 28.1 114.4 28.1 114.5 28.3 115.0
jtwc_wp tokyo cma hko
1996-08-02 12:00:00 28.8 113.8 29.1 114.0 29.1 114.0
1996-08-02 18:00:00 29.5 113.1 30.4 113.6 30.3 113.7
1996-08-03 00:00:00 30.3 112.6 31.2 113.1 30.9 113.1
1996-08-03 06:00:00 31.0 112.1 31.6 112.7 31.6 112.7
1996-08-03 12:00:00 31.7 111.7 32.0 112.1 32.0 112.1
1996-08-03 18:00:00 32.5 111.7 32.5 111.8
1996-08-04 00:00:00 32.6 111.0
1996-08-04 06:00:00 33.1 110.5
1996-08-04 12:00:00 33.6 110.0

top of pageTrack Data:Intensity

jtwc_wp tokyo cma hko
Date Wind Pres Wind Pres Wind Pres Wind Pres
1996-07-21 06:00:00 15.
1996-07-21 12:00:00 15.
1996-07-21 18:00:00 15.
1996-07-22 00:00:00 15.
1996-07-22 06:00:00 15.
1996-07-22 12:00:00 20.
1996-07-22 18:00:00 25.
1996-07-23 00:00:00 25. 1004. 29. 1004.
1996-07-23 06:00:00 25. 1004. 29. 1004. 30. 1000.
1996-07-23 12:00:00 25. 1004. 29. 1004. 35. 998.
1996-07-23 18:00:00 30. 1004. 29. 1004. 40. 994.
1996-07-24 00:00:00 30. 35. 1000. 29. 1000. 45. 990.
1996-07-24 06:00:00 35. 35. 1000. 35. 998. 50. 985.
1996-07-24 12:00:00 35. 40. 994. 35. 998. 50. 985.
1996-07-24 18:00:00 40. 40. 994. 39. 995. 50. 985.
1996-07-25 00:00:00 45. 40. 994. 39. 995. 50. 985.
1996-07-25 06:00:00 55. 40. 992. 39. 995. 55. 980.
1996-07-25 12:00:00 65. 45. 990. 45. 992. 55. 980.
1996-07-25 18:00:00 70. 50. 985. 49. 985. 55. 980.
1996-07-26 00:00:00 75. 55. 980. 54. 980. 55. 980.
1996-07-26 06:00:00 85. 60. 975. 64. 975. 55. 980.
1996-07-26 12:00:00 90. 70. 965. 68. 970. 65. 975.
1996-07-26 18:00:00 100. 75. 955. 68. 970. 70. 970.
1996-07-27 00:00:00 105. 80. 950. 78. 960. 70. 970.
1996-07-27 06:00:00 115. 85. 940. 87. 950. 80. 960.
jtwc_wp tokyo cma hko
1996-07-27 12:00:00 125. 85. 940. 87. 950. 85. 950.
1996-07-27 18:00:00 125. 85. 940. 87. 950. 85. 950.
1996-07-28 00:00:00 125. 85. 940. 87. 950. 85. 950.
1996-07-28 06:00:00 125. 85. 940. 87. 950. 85. 950.
1996-07-28 12:00:00 125. 85. 940. 87. 950. 85. 950.
1996-07-28 18:00:00 125. 85. 940. 87. 950. 85. 950.
1996-07-29 00:00:00 120. 85. 940. 87. 950. 85. 950.
1996-07-29 06:00:00 115. 85. 940. 87. 950. 85. 950.
1996-07-29 12:00:00 115. 85. 940. 87. 950. 85. 950.
1996-07-29 18:00:00 115. 85. 940. 87. 950. 85. 950.
1996-07-30 00:00:00 125. 85. 940. 87. 950. 85. 950.
1996-07-30 06:00:00 130. 90. 935. 97. 945. 90. 945.
1996-07-30 12:00:00 130. 90. 930. 107. 935. 95. 940.
1996-07-30 18:00:00 140. 90. 925. 107. 935. 95. 940.
1996-07-31 00:00:00 140. 90. 925. 97. 940. 95. 940.
1996-07-31 06:00:00 135. 95. 925. 97. 940. 95. 940.
1996-07-31 12:00:00 130. 95. 925. 87. 945. 90. 945.
1996-07-31 18:00:00 75. 75. 960. 78. 960. 85. 950.
1996-08-01 00:00:00 95. 70. 965. 68. 970. 85. 950.
1996-08-01 06:00:00 70. 60. 975. 58. 975. 65. 970.
1996-08-01 12:00:00 60. 45. 980. 45. 980. 45. 982.
1996-08-01 18:00:00 50. 40. 985. 39. 985. 40. 985.
1996-08-02 00:00:00 40. 35. 988. 39. 988. 35. 988.
1996-08-02 06:00:00 30. 990. 29. 990. 30. 990.
jtwc_wp tokyo cma hko
1996-08-02 12:00:00 30. 992. 29. 992.
1996-08-02 18:00:00 25. 996. 23. 995.
1996-08-03 00:00:00 20. 998. 19. 996.
1996-08-03 06:00:00 20. 998. 19. 996.
1996-08-03 12:00:00 20. 1000. 19. 998.
1996-08-03 18:00:00 1000. 19. 998.
1996-08-04 00:00:00 1000.
1996-08-04 06:00:00 1000.
1996-08-04 12:00:00 1000.

top of page Links to source data

Source Source file Format
jtwc_wp bwp101996.txt ATCF
tokyo bst_all.txt:Line=46048:HERB:9609 JMA text table
cma CH1996BST.txt:Storm=9:HERB CMA text table
hko tc-besttrack-data.txt:Line=25638:HERB HKO Text table